Etusivu
METAR-TAF:

METAR-TAF

Lentoasemat :

Billundin lentoasema

Billund, Tanska

Leveyspiiri: 55-44N, Pituuspiiri: 009-10E, korkeus merenpinnasta: 75 m

Tämänhetkinen sää

Tämä raportti tehtiin 16 minuuttia sitten, kello 00.50 UTC
Tuuli 1 kn lännestä
Lämpötila 12°C
Kosteus 88%
Ilmanpaine 1012 hPa
Näkyvyys 10 km tai enemmän

METAR: EKBI 220050Z AUTO 28001KT 9999NDV BKN190/// 12/10 Q1012

Aika: 03:06 (01:06 UTC)

Sääennuste

Tämä raportti tehtiin 2 tuntia ja 0 minuuttia sitten, kello 23.06 UTC
Ennuste voimassa 22. päivästä klo 00 UTC - 22. päivään klo 24 UTC
Tuuli 8 kn lännestä/luoteesta
Näkyvyys 10 km tai enemmän
Hajanaisia pilviä 3000 ft:n korkeudessa
Ajoittain
22. päivästä klo 02 UTC - 22. päivään klo 06 UTC
Hajonneita pilviä 800 ft:n korkeudessa
Tulossa
22. päivästä klo 21 UTC - 22. päivään klo 24 UTC
Hajonneita pilviä 800 ft:n korkeudessa

TAF: EKBI 212306Z 2200/2224 29008KT 9999 SCT030 TEMPO 2202/2206 BKN008 BECMG 2221/2224 BKN008

Säähavainnot ja -ennusteet yli 4000 lentoasemalta (METAR- ja TAF-raportit).

Käytössä olevat sääasemat on merkitty karttaan keltaisilla ja punaisilla pisteillä.

Aseta hiiri pisteen päälle nähdäksesi sääaseman nimen.

Klikkaa sitten nähdäksesi säähavainnot ja -ennusteet.

Kartan vaihtaminen: klikkaa mustalla rastilla varustettuja vihreitä pisteitä, niin voit zoomata sisään; viivalla varustettua vihreää pistettä, niin voit zoomata ulos tai vihreitä nuolia, niin pääset viereisille kartoille.


METAR-TAF: